Langruth, Canada
Current Conditions -  °F | °C
As of 2:00 AM on Saturday 25 Oct 2014 (Local Time) from CYBR Reporting Station
Clear Clear  
Wind Chill: -1°   Ceiling: Unl
Heat Index:   Visibility: 15mi
Dew Point:   Wind: 15mph
Humidity: 75%   Direction: 270°W
Pressure: 29.94"   Gusts: NA
Location:  50.38°N, 98.67°W
Report Text: CYBR 250700Z 27013KT 15SM SKC 04/M00 A2994 RMK SLP148
Loading
Personal Weather Stations






























Interactive Weather Map
Tropical Storm Tracking
New forecast layout! Learn more

10-Day Weather Forecast

Advertisements
Track Severe Weather on mobile